Have a Safe July 4th! 

Flight Track Log - Related Links

Times and Time Zones

All times are in EDT time to prevent confusion due to time zone crossing. See the UPS1083 flight status page for this flight to view local times or setup timezone preferences in your user account.

Time Position Orientation Groundspeed Altitude Reporting Facility
EDT Latitude Longitude Course Direction KTS MPH feet Rate Location/Type
Thu 10:41:03 PM 40.7240 -74.1320 48° Northeast 209 241 2,300  Level FlightAware ADS-B
Thu 10:41:16 PM 40.7332 -74.1190 47° Northeast 222 255 3,000 3,130 Climbing FlightAware ADS-B
Thu 10:41:26 PM 40.7403 -74.1086 48° Northeast 237 273 3,500 3,200 Climbing FlightAware ADS-B
Thu 10:41:31 PM 40.7443 -74.1035 44° Northeast 241 277 3,800 3,818 Climbing FlightAware ADS-B
Thu 10:41:37 PM 40.7498 -74.0987 33° Northeast 246 283 4,200 3,000 Climbing FlightAware ADS-B
Thu 10:41:45 PM 40.7583 -74.0944 21° North 256 295 4,500 2,500 Climbing FlightAware ADS-B
Thu 10:41:49 PM 40.7633 -74.0932 10° North 262 302 4,700 2,000 Climbing FlightAware ADS-B
Thu 10:41:54 PM 40.7691 -74.0928 North 270 311 4,800 2,250 Climbing FlightAware ADS-B
Thu 10:41:57 PM 40.7730 -74.0931 357° North 273 314 5,000 5,000 Climbing FlightAware ADS-B
Thu 10:42:00 PM 40.7770 -74.0939 351° North 272 313 5,300 4,500 Climbing FlightAware ADS-B
Thu 10:42:05 PM 40.7833 -74.0962 345° North 273 314 5,600 3,750 Climbing FlightAware ADS-B
Thu 10:42:08 PM 40.7869 -74.0981 338° Northwest 274 315 5,800 4,286 Climbing FlightAware ADS-B
Thu 10:42:12 PM 40.7909 -74.1009 332° Northwest 274 315 6,100 4,500 Climbing FlightAware ADS-B
Thu 10:42:16 PM 40.7957 -74.1053 325° Northwest 274 315 6,400 4,286 Climbing FlightAware ADS-B
Thu 10:42:19 PM 40.7980 -74.1079 319° Northwest 275 316 6,600 3,600 Climbing FlightAware ADS-B
Thu 10:42:21 PM 40.7996 -74.1099 317° Northwest 276 318 6,700 2,455 Climbing FlightAware ADS-B
Thu 10:42:41 PM 40.8130 -74.1395 301° West 286 329 7,500 2,250 Climbing FlightAware ADS-B
Thu 10:42:45 PM 40.8143 -74.1466 284° West 286 329 7,600 2,000 Climbing FlightAware ADS-B
Thu 10:42:47 PM 40.8148 -74.1500 281° West 287 330 7,700 1,200 Climbing FlightAware ADS-B
Thu 10:42:50 PM 40.8151 -74.1552 274° West 286 329 7,700  Level FlightAware ADS-B
Thu 10:42:52 PM 40.8152 -74.1579 273° West 286 329 7,700 750 Level FlightAware ADS-B
Thu 10:42:58 PM 40.8152 -74.1684 270° West 289 333 7,800 316 Climbing FlightAware ADS-B
Thu 10:43:11 PM 40.8148 -74.1915 269° West 289 333 7,800  Level FlightAware ADS-B
Thu 10:43:12 PM 40.8148 -74.1937 270° West 289 333 7,800 400 Level FlightAware ADS-B
Thu 10:43:26 PM 40.8143 -74.2190 269° West 289 333 7,900 400 Climbing FlightAware ADS-B
Thu 10:43:27 PM 40.8143 -74.2206 270° West 289 333 7,900 375 Level FlightAware ADS-B
Thu 10:43:42 PM 40.8140 -74.2460 269° West 288 331 8,000 968 Climbing FlightAware ADS-B
Thu 10:43:58 PM 40.8136 -74.2744 269° West 287 330 8,400 1,412 Climbing FlightAware ADS-B
Thu 10:43:59 PM 40.8136 -74.2753 270° West 288 331 8,400 1,125 Level FlightAware ADS-B
Thu 10:44:14 PM 40.8129 -74.3020 268° West 288 331 8,700 1,125 Climbing FlightAware ADS-B
Thu 10:44:15 PM 40.8128 -74.3038 266° West 287 330 8,700 1,412 Level FlightAware ADS-B
Thu 10:44:31 PM 40.8120 -74.3315 268° West 285 328 9,100 1,667 Climbing FlightAware ADS-B
Thu 10:44:33 PM 40.8118 -74.3356 266° West 284 327 9,200 2,526 Climbing FlightAware ADS-B
Thu 10:44:50 PM 40.8109 -74.3649 268° West 286 329 9,900 2,571 Climbing FlightAware ADS-B
Thu 10:45:01 PM 40.8103 -74.3839 268° West 286 329 10,400 1,548 Climbing FlightAware ADS-B
Thu 10:45:21 PM 40.8091 -74.4237 268° West 330 380 10,700 833 Climbing FlightAware ADS-B
Thu 10:45:37 PM 40.8082 -74.4568 268° West 363 418 10,900 1,548 Climbing FlightAware ADS-B
Thu 10:45:52 PM 40.8073 -74.4909 268° West 376 433 11,500 2,500 Climbing FlightAware ADS-B
Thu 10:46:13 PM 40.8062 -74.5398 268° West 387 445 12,400 2,909 Climbing FlightAware ADS-B
Thu 10:46:25 PM 40.8059 -74.5688 269° West 396 456 13,100 3,714 Climbing FlightAware ADS-B
Thu 10:46:55 PM 40.8063 -74.6426 270° West 401 461 15,000 3,400 Climbing FlightAware ADS-B
Thu 10:47:25 PM 40.8061 -74.7167 270° West 407 468 16,500 1,900 Climbing FlightAware ADS-B
Thu 10:47:55 PM 40.8057 -74.7914 270° West 405 466 16,900 400 Climbing FlightAware ADS-B
Thu 10:48:25 PM 40.8050 -74.8658 269° West 407 468 16,900 295 Level FlightAware ADS-B
Thu 10:48:56 PM 40.8046 -74.9412 270° West 407 468 17,200 1,574 Climbing FlightAware ADS-B
Thu 10:49:26 PM 40.8042 -75.0161 270° West 414 476 18,500 2,500 Climbing FlightAware ADS-B
Thu 10:49:56 PM 40.8036 -75.0939 269° West 426 490 19,700 2,400 Climbing FlightAware ADS-B
Thu 10:50:11 PM 40.8015 -75.1331 266° West 429 494 20,300 2,400 Climbing FlightAware ADS-B
Thu 10:50:41 PM 40.7902 -75.2117 259° West 438 504 21,500 2,262 Climbing FlightAware ADS-B
Thu 10:51:12 PM 40.7787 -75.2925 259° West 451 519 22,600 2,235 Climbing FlightAware ADS-B
Thu 10:51:32 PM 40.7704 -75.3484 259° West 456 525 23,400 2,182 Climbing FlightAware ADS-B
Thu 10:51:45 PM 40.7635 -75.3806 254° West 457 526 23,800 2,100 Climbing FlightAware ADS-B
Thu 10:51:52 PM 40.7581 -75.4003 250° West 457 526 24,100 2,308 Climbing FlightAware ADS-B
Thu 10:51:58 PM 40.7530 -75.4160 247° West 457 526 24,300 2,500 Climbing FlightAware ADS-B
Thu 10:52:28 PM 40.7245 -75.4914 244° Southwest 459 528 25,600 2,164 Climbing FlightAware ADS-B
Thu 10:52:59 PM 40.6964 -75.5679 244° Southwest 467 537 26,500 1,967 Climbing FlightAware ADS-B
Thu 10:53:29 PM 40.6672 -75.6464 244° Southwest 472 543 27,600 1,967 Climbing FlightAware ADS-B
Thu 10:54:00 PM 40.6371 -75.7259 244° Southwest 479 551 28,500 2,226 Climbing FlightAware ADS-B
Thu 10:54:31 PM 40.6069 -75.8052 243° Southwest 471 542 29,900 3,344 Climbing FlightAware ADS-B
Thu 10:55:01 PM 40.5780 -75.8823 244° Southwest 450 518 31,900 2,952 Climbing FlightAware ADS-B
Thu 10:55:34 PM 40.5481 -75.9607 243° Southwest 449 517 33,000 1,905 Climbing FlightAware ADS-B
Thu 10:56:04 PM 40.5202 -76.0346 244° Southwest 448 516 33,900 1,600 Climbing FlightAware ADS-B
Thu 10:56:34 PM 40.4921 -76.1078 243° Southwest 450 518 34,600 1,082 Climbing FlightAware ADS-B
Thu 10:57:05 PM 40.4626 -76.1849 243° Southwest 460 529 35,000 1,082 Climbing FlightAware ADS-B
Thu 10:57:35 PM 40.4335 -76.2601 243° Southwest 461 531 35,700 1,475 Climbing FlightAware ADS-B
Thu 10:58:06 PM 40.4041 -76.3362 243° Southwest 458 527 36,500 2,066 Climbing FlightAware ADS-B
Thu 10:58:36 PM 40.3762 -76.4094 243° Southwest 443 510 37,800 1,475 Climbing FlightAware ADS-B
Thu 10:59:07 PM 40.3482 -76.4821 243° Southwest 435 501 38,000 231 Climbing FlightAware ADS-B
Thu 10:59:28 PM 40.3274 -76.5311 241° Southwest 426 490 38,000  Level FlightAware ADS-B
Thu 10:59:42 PM 40.3118 -76.5587 233° Southwest 422 486 38,000  Level FlightAware ADS-B
Thu 11:00:04 PM 40.2874 -76.6054 236° Southwest 427 491 38,000  Level FlightAware ADS-B
Thu 11:00:09 PM 40.2809 -76.6166 233° Southwest 425 489 38,000  Level FlightAware ADS-B
Thu 11:00:40 PM 40.2407 -76.6736 227° Southwest 427 491 38,000  Level FlightAware ADS-B
Thu 11:01:10 PM 40.2001 -76.7314 227° Southwest 428 493 38,000  Level FlightAware ADS-B
Thu 11:01:38 PM 40.1628 -76.7845 227° Southwest 428 493 38,000  Level FlightAware ADS-B
Thu 11:01:49 PM 40.1494 -76.8085 234° Southwest 435 501 38,000  Level FlightAware ADS-B
Thu 11:01:56 PM 40.1431 -76.8229 240° Southwest 439 505 38,000  Level FlightAware ADS-B
Thu 11:02:26 PM 40.1204 -76.8989 249° West 448 516 38,000  Level FlightAware ADS-B
Thu 11:02:58 PM 40.0971 -76.9786 249° West 451 519 38,000  Level FlightAware ADS-B
Thu 11:03:39 PM 40.0659 -77.0854 249° West 456 525 38,000  Level FlightAware ADS-B
Thu 11:04:10 PM 40.0426 -77.1652 249° West 456 525 38,000  Level FlightAware ADS-B
Thu 11:04:41 PM 40.0194 -77.2435 249° West 456 525 38,000  Level FlightAware ADS-B
Thu 11:05:11 PM 39.9965 -77.3202 249° West 455 524 38,000  Level FlightAware ADS-B
Thu 11:05:42 PM 39.9725 -77.4004 249° West 457 526 38,000  Level FlightAware ADS-B
Thu 11:06:32 PM 39.9342 -77.5281 249° West 459 528 38,000  Level FlightAware ADS-B
Thu 11:07:02 PM 39.9110 -77.6057 249° West 460 529 38,000  Level FlightAware ADS-B
Thu 11:07:34 PM 39.8864 -77.6878 249° West 462 532 38,000  Level FlightAware ADS-B
Thu 11:08:05 PM 39.8627 -77.7667 249° West 463 533 38,000  Level FlightAware ADS-B
Thu 11:08:44 PM 39.8320 -77.8680 248° West 465 535 38,000  Level FlightAware ADS-B
Thu 11:08:53 PM 39.8250 -77.8909 248° West 465 535 38,000  Level FlightAware ADS-B
Thu 11:09:24 PM 39.8010 -77.9700 248° West 465 535 38,000  Level FlightAware ADS-B
Thu 11:09:43 PM 39.7855 -78.0208 248° West 466 536 38,000 120 Level FlightAware ADS-B
Thu 11:10:14 PM 39.7605 -78.1027 248° West 466 536 38,100 86 Climbing FlightAware ADS-B
Thu 11:10:53 PM 39.7300 -78.2030 248° West 467 537 38,100 -76 Level FlightAware ADS-B
Thu 11:11:33 PM 39.6970 -78.3080 248° West 468 539 38,000 -73 Descending FlightAware ADS-B
Thu 11:12:15 PM 39.6640 -78.4160 248° West 468 539 38,000  Level FlightAware ADS-B
Thu 11:12:51 PM 39.6350 -78.5100 248° West 468 539 38,000  Level FlightAware ADS-B
Thu 11:13:31 PM 39.6020 -78.6160 248° West 469 540 38,000  Level FlightAware ADS-B
Thu 11:14:15 PM 39.5670 -78.7290 248° West 469 540 38,000  Level FlightAware ADS-B
Thu 11:14:49 PM 39.5390 -78.8170 248° West 469 540 38,000  Level FlightAware ADS-B
Thu 11:15:33 PM 39.5030 -78.9330 248° West 468 539 38,000  Level FlightAware ADS-B
Thu 11:16:13 PM 39.4700 -79.0350 247° West 469 540 38,000  Level FlightAware ADS-B
Thu 11:16:57 PM 39.4340 -79.1500 248° West 467 537 38,000  Level FlightAware ADS-B
Thu 11:17:37 PM 39.4010 -79.2520 247° West 469 540 38,000  Level FlightAware ADS-B
Thu 11:18:17 PM 39.3690 -79.3550 248° West 470 541 38,000  Level FlightAware ADS-B
Thu 11:19:03 PM 39.3300 -79.4750 247° West 472 543 38,000  Level FlightAware ADS-B
Thu 11:19:33 PM 39.3050 -79.5520 247° West 472 543 38,000 81 Level FlightAware ADS-B
Thu 11:20:17 PM 39.2680 -79.6670 247° West 472 543 38,100 68 Climbing FlightAware ADS-B
Thu 11:21:01 PM 39.2310 -79.7810 247° West 472 543 38,100 -79 Level FlightAware ADS-B
Thu 11:21:33 PM 39.2040 -79.8640 247° West 475 547 38,000  Descending FlightAware ADS-B
Thu 11:22:19 PM 39.1650 -79.9820 247° West 475 547 38,100 70 Climbing FlightAware ADS-B
Thu 11:22:59 PM 39.1310 -80.0890 248° West 474 545 38,100  Level FlightAware ADS-B
Thu 11:23:42 PM 39.0970 -80.1890 246° West 473 544 38,100 -72 Level FlightAware ADS-B
Thu 11:24:22 PM 39.0600 -80.3020 247° West 466 536 38,000 -71 Descending FlightAware ADS-B
Thu 11:25:07 PM 39.0220 -80.4150 247° West 460 529 38,000  Level FlightAware ADS-B
Thu 11:25:47 PM 38.9880 -80.5170 247° West 460 529 38,000  Level FlightAware ADS-B
Thu 11:26:32 PM 38.9520 -80.6250 247° West 468 539 38,000  Level FlightAware ADS-B
Thu 11:27:17 PM 38.9130 -80.7440 247° West 477 549 38,000 70 Level FlightAware ADS-B
Thu 11:27:58 PM 38.8760 -80.8520 246° West 483 556 38,100  Climbing FlightAware ADS-B
Thu 11:28:35 PM 38.8430 -80.9500 247° West 483 556 38,000 -75 Descending FlightAware ADS-B
Thu 11:29:18 PM 38.8050 -81.0620 247° West 476 548 38,000  Level FlightAware ADS-B
Thu 11:29:59 PM 38.7690 -81.1670 246° West 468 539 38,000  Level FlightAware ADS-B
Thu 11:30:43 PM 38.7300 -81.2790 246° West 463 533 38,000  Level FlightAware ADS-B
Thu 11:31:23 PM 38.6960 -81.3800 247° West 459 528 38,000  Level FlightAware ADS-B
Thu 11:32:03 PM 38.6620 -81.4790 246° West 456 525 38,000  Level FlightAware ADS-B
Thu 11:32:49 PM 38.6230 -81.5910 246° West 455 524 38,000  Level FlightAware ADS-B
Thu 11:33:25 PM 38.5930 -81.6780 246° West 452 520 38,000  Level FlightAware ADS-B
Thu 11:34:05 PM 38.5600 -81.7740 246° West 451 519 38,000  Level FlightAware ADS-B
Thu 11:34:46 PM 38.5240 -81.8760 246° West 448 516 38,000  Level FlightAware ADS-B
Thu 11:35:26 PM 38.4910 -81.9700 246° West 446 513 38,000  Level FlightAware ADS-B
Thu 11:36:02 PM 38.4600 -82.0580 246° West 444 511 38,000  Level FlightAware ADS-B
Thu 11:36:47 PM 38.4230 -82.1640 246° West 442 509 38,000  Level FlightAware ADS-B
Thu 11:37:27 PM 38.3890 -82.2590 245° Southwest 441 507 38,000  Level FlightAware ADS-B
Thu 11:38:07 PM 38.3560 -82.3530 246° West 441 507 38,000  Level FlightAware ADS-B
Thu 11:38:50 PM 38.3190 -82.4560 245° Southwest 444 511 38,000 -345 Level FlightAware ADS-B
Thu 11:39:34 PM 38.2810 -82.5620 245° Southwest 450 518 37,500 -1,694 Descending FlightAware ADS-B
Thu 11:40:15 PM 38.2480 -82.6580 246° West 455 524 35,600 -3,120 Descending FlightAware ADS-B
Thu 11:40:49 PM 38.2160 -82.7460 245° Southwest 476 548 33,600 -2,692 Descending FlightAware ADS-B
Thu 11:41:33 PM 38.1750 -82.8560 245° Southwest 470 541 32,100 -1,143 Descending FlightAware ADS-B
Thu 11:42:13 PM 38.1390 -82.9560 245° Southwest 476 548 32,000 -81 Descending FlightAware ADS-B
Thu 11:42:47 PM 38.1090 -83.0400 246° West 472 543 32,000  Level FlightAware ADS-B
Thu 11:43:22 PM 38.0749 -83.1330 245° Southwest 469 540 32,000  Level FlightAware ADS-B
Thu 11:43:53 PM 38.0469 -83.2092 245° Southwest 469 540 32,000  Level FlightAware ADS-B
Thu 11:44:23 PM 38.0192 -83.2850 245° Southwest 470 541 32,000  Level FlightAware ADS-B
Thu 11:45:11 PM 37.9755 -83.4041 245° Southwest 470 541 32,000 -1,397 Level FlightAware ADS-B
Thu 11:50:28 PM 37.6799 -84.1964 245° Southwest 489 563 23,500 -1,707 Descending FlightAware ADS-B
Thu 11:50:59 PM 37.6500 -84.2760 245° Southwest 471 542 22,100 -2,684 Descending FlightAware ADS-B
Thu 11:51:44 PM 37.6089 -84.3839 244° Southwest 453 521 20,100 -1,403 Descending FlightAware ADS-B
Thu 11:52:16 PM 37.5850 -84.4450 244° Southwest 451 519 20,300 -2,500 Climbing FlightAware ADS-B
Thu 11:53:08 PM 37.5372 -84.5714 244° Southwest 438 504 16,600 -1,787 Descending Indianapolis Center
Thu 11:58:22 PM 37.7450 -85.0780 244° Southwest 283 326 9,400 -1,341 Descending FlightAware ADS-B
Thu 11:58:48 PM 37.7680 -85.1110 311° West 277 319 9,000 -960 Descending FlightAware ADS-B
Thu 11:59:12 PM 37.7920 -85.1440 313° West 277 319 8,600 -923 Descending FlightAware ADS-B
Thu 11:59:27 PM 37.8010 -85.1570 311° West 274 315 8,400 -484 Descending FlightAware ADS-B
Fri 12:00:14 AM 37.8380 -85.2080 313° West 274 315 8,100 -880 Descending FlightAware ADS-B
Fri 12:00:42 AM 37.8650 -85.2460 312° West 271 312 7,300 -1,358 Descending FlightAware ADS-B
Fri 12:01:07 AM 37.8870 -85.2760 313° West 269 310 6,900 -923 Descending FlightAware ADS-B
Fri 12:01:47 AM 37.9060 -85.3350 292° West 270 311 6,300 -923 Descending FlightAware ADS-B
Fri 12:02:12 AM 37.9120 -85.3730 281° West 269 310 5,900 -1,000 Descending FlightAware ADS-B
Fri 12:02:47 AM 37.9030 -85.4320 259° West 266 306 5,300 -1,021 Descending FlightAware ADS-B
Fri 12:02:59 AM 37.8990 -85.4500 254° West 266 306 5,100 -833 Descending FlightAware ADS-B
Fri 12:03:23 AM 37.8880 -85.4830 247° West 265 305 4,800 -783 Descending FlightAware ADS-B
Fri 12:03:45 AM 37.8780 -85.5140 248° West 262 302 4,500 -889 Descending FlightAware ADS-B
Fri 12:04:17 AM 37.8600 -85.5530 240° Southwest 248 285 4,000 -1,000 Descending FlightAware ADS-B
Fri 12:04:27 AM 37.8470 -85.5590 200° South 241 277 3,800 -1,000 Descending FlightAware ADS-B
Fri 12:04:47 AM 37.8280 -85.5640 192° South 226 260 3,500 -800 Descending FlightAware ADS-B
Fri 12:04:57 AM 37.8200 -85.5690 206° Southwest 220 253 3,400 -960 Descending FlightAware ADS-B
Fri 12:05:12 AM 37.8120 -85.5860 239° Southwest 209 241 3,100 -900 Descending FlightAware ADS-B
Fri 12:05:37 AM 37.8180 -85.6130 286° West 192 221 2,800 -327 Descending FlightAware ADS-B
Fri 12:06:07 AM 37.8340 -85.6360 311° West 182 209 2,800  Level FlightAware ADS-B
Fri 12:06:17 AM 37.8430 -85.6380 350° North 184 212 2,800  Level FlightAware ADS-B
Fri 12:06:37 AM 37.8590 -85.6360 North 189 217 2,800  Level FlightAware ADS-B
Fri 12:06:52 AM 37.8730 -85.6350 North 188 216 2,800  Level FlightAware ADS-B
Fri 12:07:12 AM 37.8900 -85.6330 North 188 216 2,800  Level FlightAware ADS-B
Fri 12:07:32 AM 37.9080 -85.6380 348° North 189 217 2,800  Level FlightAware ADS-B
Fri 12:07:57 AM 37.9280 -85.6430 349° North 189 217 2,800  Level FlightAware ADS-B
Fri 12:08:22 AM 37.9500 -85.6500 346° North 190 219 2,800  Level FlightAware ADS-B
Fri 12:08:47 AM 37.9700 -85.6570 345° North 189 217 2,800  Level FlightAware ADS-B
Fri 12:09:02 AM 37.9830 -85.6620 343° North 189 217 2,800  Level FlightAware ADS-B
Fri 12:09:32 AM 38.0080 -85.6700 346° North 189 217 2,800  Level FlightAware ADS-B
Fri 12:09:57 AM 38.0280 -85.6770 345° North 190 219 2,800 -120 Level FlightAware ADS-B
Fri 12:10:22 AM 38.0530 -85.6850 346° North 186 214 2,700 -600 Descending FlightAware ADS-B
Fri 12:10:47 AM 38.0710 -85.6920 343° North 179 206 2,300 -1,050 Descending FlightAware ADS-B
Fri 12:11:02 AM 38.0820 -85.6950 348° North 172 198 2,000 -955 Descending FlightAware ADS-B
Fri 12:11:31 AM 38.1050 -85.7030 345° North 155 178 1,600 -842 Descending FlightAware ADS-B
Fri 12:11:59 AM 38.1250 -85.7100 345° North 152 175 1,200 -808 Descending FlightAware ADS-B
Fri 12:12:23 AM 38.1410 -85.7160 344° North 150 173 900 -766 Descending FlightAware ADS-B
Fri 12:12:46 AM 38.1560 -85.7210 345° North 146 168 600 -783 Descending FlightAware ADS-B
Fri 12:13:23 AM 38.1780 -85.7280 346° North 64 74 -973 Descending FlightAware ADS-B
Fri 12:14:06 AM 38.1840 -85.7300 345° North 25 29  Level FlightAware ADS-B
Fri 12:14:39 AM 38.1830 -85.7330 247° West 29 33  Level FlightAware ADS-B
Fri 12:15:14 AM 38.1790 -85.7340 191° South 34 39  Level FlightAware ADS-B
Fri 12:17:01 AM 38.1780 -85.7370 247° West 18 21  Level FlightAware ADS-B
Fri 12:17:25 AM 38.1790 -85.7400 293° West 15 17  Level FlightAware ADS-B
Fri 12:17:47 AM 38.1800 -85.7420 302° West 17 20  Level FlightAware ADS-B
Fri 12:18:01 AM 38.1800 -85.7430 270° West 34 39  Level FlightAware ADS-B

Login

Don't have an account? Register now (free) for customized features, flight alerts, and more!